Airfield :
LOGIN :

Register | Disclaimer

   EN    FR    IT 

 










Legend :    VFR   Marginal VFR   IFR   Intensive IFR   Very Intensive IFR
Visi :
Ceiling :
>= 8 km
>= 3000ft
5 to 8 km
1000 to 3000 ft
1500m to 5 km
500 to 1000 ft
800 to 1500m
200 to 500 ft
< 800m
< 200 ft
Symbols :   Thunderstorms  Fog  Heavy snow  Heavy precipitations  Wind > 20 kt
SIGMETs :     Misc.  Thunderstorms  Icing  Turbulence  Mountain Waves  Volcanic Ashes







- Airport Elevation : 20 ft


EBFN - Koksijde

CURRENT METAR :
  • 172025Z AUTO 28007KT 9999 BKN170/// 18/14 Q1012 BLU

EXPIRED METARs :
  • 171955Z AUTO 29007KT 9999 BKN170/// 19/14 Q1012 BLU
  • 171925Z AUTO 28010KT 9000 FEW076/// BKN160/// 20/15 Q1012 BLU
  • 171855Z AUTO 07004KT 9999 BKN170/// 21/15 Q1012 BLU
  • 171825Z AUTO 07005KT 9999 BKN180/// 22/14 Q1012 BLU
  • 171755Z AUTO 06006KT 9999 NCD 23/14 Q1012 BLU

Expired Forecast.
No reported NOTAMs for that airfield.



MET'MAP, your aeronautical weather chart ! - Copyright ORBIFLY December 2007 - Disclaimer

ORBIFLY MET'MAP TEAM :

Programming & Development : Alexandra Zaïnal
Concept & Development : Baudouin d'Aumeries
Co-Development & Prog : Marc-Olivier Méhu
Technical & hardware support : Manuel Goepfert

Contact : metmap@orbifly.com




SOURCES & CREDITS :

   NOAA